Terminal Aerodrome Forecast
Issued by NWS

Home | Current Version | Previous Version | Text Only | Print | Product List | Glossary On
Versions: 1 2 3 4 5 6 7 8 9 10 11 12 13 14 15 16 17 18 19 20 21
000
FTUS43 KMKX 240520
TAFUES
TAF
KUES 240520Z 2406/2506 21007KT P6SM FEW080
     FM241100 21010KT P6SM FEW100 WS020/24040KT
     FM241700 21017G28KT P6SM FEW150 SCT250
     FM242200 22013KT P6SM FEW110 SCT120
     FM250100 26012KT P6SM BKN110=

USA.gov is the U.S. government's official web portal to all federal, state and local government web resources and services.